Time;durP1;ratioP1;P1;durP2;ratioP2;P2;SDS_P1;SDS_P2;PMS_P1;PMS_P2;Temp;Humidity;BMP_temperature;BMP_pressure;BME280_temperature;BME280_humidity;BME280_pressure;Samples;Min_cycle;Max_cycle;Signal;HPM_P1;HPM_P2
2023/10/29 00:01:03;;;;;;;;;;;;;;;;;;4924394;28;20331;-68
2023/10/29 00:03:29;;;;;;;;;;;;;;;;;;4942143;28;19913;-69
2023/10/29 00:05:55;;;;;;;;;;;;;;;;;;4938538;28;19913;-69
2023/10/29 00:08:21;;;;;;;;;;;;;;;;;;4927727;28;20030;-69
2023/10/29 00:10:46;;;;;;;;;;;;;;;;;;4937016;28;19921;-69
2023/10/29 00:13:12;;;;;;;;;;;;;;;;;;4926776;28;19989;-69
2023/10/29 00:15:38;;;;;;;;;;;;;;;;;;4940122;28;19914;-69
2023/10/29 00:18:12;;;;;;;;;;;;;;;;;;4941977;28;19917;-69
2023/10/29 00:20:38;;;;;;;;;;;;;;;;;;4937892;28;19980;-68
2023/10/29 00:23:04;;;;;;;;;;;;;;;;;;4942334;28;20013;-68
2023/10/29 00:25:30;;;;;;;;;;;;;;;;;;4939139;28;19922;-68
2023/10/29 00:27:56;;;;;;;;;;;;;;;;;;4942652;28;19921;-68
2023/10/29 00:30:22;;;;;;;;;;;;;;;;;;4926788;28;20100;-68
2023/10/29 00:32:48;;;;;;;;;;;;;;;;;;4942090;28;19922;-67
2023/10/29 00:35:14;;;;;;;;;;;;;;;;;;4941412;28;20364;-68
2023/10/29 00:37:40;;;;;;;;;;;;;;;;;;4942134;28;19922;-69
2023/10/29 00:40:06;;;;;;;;;;;;;;;;;;4926730;28;19941;-69
2023/10/29 00:42:32;;;;;;;;;;;;;;;;;;4944300;28;20002;-68
2023/10/29 00:44:58;;;;;;;;;;;;;;;;;;4922143;28;20410;-68
2023/10/29 00:47:24;;;;;;;;;;;;;;;;;;4941998;28;19913;-68
2023/10/29 00:49:50;;;;;;;;;;;;;;;;;;4933032;28;19917;-67
2023/10/29 00:52:17;;;;;;;;;;;;;;;;;;4906623;28;20377;-68
2023/10/29 00:54:43;;;;;;;;;;;;;;;;;;4933835;28;20391;-67
2023/10/29 00:57:09;;;;;;;;;;;;;;;;;;4950022;28;19921;-67
2023/10/29 00:59:35;;;;;;;;;;;;;;;;;;4930714;28;20425;-68
2023/10/29 01:02:01;;;;;;;;;;;;;;;;;;4930507;28;19929;-68
2023/10/29 01:04:27;;;;;;;;;;;;;;;;;;4932458;28;19969;-68
2023/10/29 01:06:53;;;;;;;;;;;;;;;;;;4947331;28;19918;-68
2023/10/29 01:09:19;;;;;;;;;;;;;;;;;;4951521;28;20013;-69
2023/10/29 01:11:46;;;;;;;;;;;;;;;;;;4944479;28;19914;-68
2023/10/29 01:14:12;;;;;;;;;;;;;;;;;;4951680;28;19914;-68
2023/10/29 01:16:39;;;;;;;;;;;;;;;;;;4946073;28;19993;-68
2023/10/29 01:19:05;;;;;;;;;;;;;;;;;;4948024;28;20346;-68
2023/10/29 01:21:31;;;;;;;;;;;;;;;;;;4950451;28;19985;-68
2023/10/29 01:23:57;;;;;;;;;;;;;;;;;;4943317;28;20008;-68
2023/10/29 01:26:24;;;;;;;;;;;;;;;;;;4929462;28;20064;-68
2023/10/29 01:28:50;;;;;;;;;;;;;;;;;;4903934;28;20092;-68
2023/10/29 01:31:16;;;;;;;;;;;;;;;;;;4909401;28;20257;-69
2023/10/29 01:33:42;;;;;;;;;;;;;;;;;;4886488;28;19928;-69
2023/10/29 01:36:08;;;;;;;;;;;;;;;;;;4907270;28;19918;-67
2023/10/29 01:38:34;;;;;;;;;;;;;;;;;;4898841;28;19922;-67
2023/10/29 01:40:59;;;;;;;;;;;;;;;;;;4910319;28;20188;-67
2023/10/29 01:43:26;;;;;;;;;;;;;;;;;;4908556;28;20266;-67
2023/10/29 01:45:52;;;;;;;;;;;;;;;;;;4902136;28;19918;-67
2023/10/29 01:48:18;;;;;;;;;;;;;;;;;;4908664;28;19929;-67
2023/10/29 01:50:44;;;;;;;;;;;;;;;;;;4899976;28;20254;-67
2023/10/29 01:53:10;;;;;;;;;;;;;;;;;;4903087;28;19921;-68
2023/10/29 01:55:36;;;;;;;;;;;;;;;;;;4886515;28;20060;-67
2023/10/29 01:58:02;;;;;;;;;;;;;;;;;;4888041;28;19914;-67
2023/10/29 02:00:28;;;;;;;;;;;;;;;;;;4903332;28;19922;-67
2023/10/29 02:02:54;;;;;;;;;;;;;;;;;;4899521;28;20382;-69
2023/10/29 02:05:20;;;;;;;;;;;;;;;;;;4934180;28;20416;-68
2023/10/29 02:07:46;;;;;;;;;;;;;;;;;;4929284;28;19968;-67
2023/10/29 02:10:12;;;;;;;;;;;;;;;;;;4930326;28;19918;-68
2023/10/29 02:12:38;;;;;;;;;;;;;;;;;;4928175;28;20311;-67
2023/10/29 02:15:04;;;;;;;;;;;;;;;;;;4931226;28;20017;-68
2023/10/29 02:17:30;;;;;;;;;;;;;;;;;;4933681;28;19914;-68
2023/10/29 02:19:57;;;;;;;;;;;;;;;;;;4948971;28;19929;-67
2023/10/29 02:22:23;;;;;;;;;;;;;;;;;;4947686;28;19919;-67
2023/10/29 02:24:49;;;;;;;;;;;;;;;;;;4931365;28;20641;-68
2023/10/29 02:27:15;;;;;;;;;;;;;;;;;;4948017;28;19956;-68
2023/10/29 02:29:41;;;;;;;;;;;;;;;;;;4942400;28;19921;-67
2023/10/29 02:32:07;;;;;;;;;;;;;;;;;;4935197;28;19937;-68
2023/10/29 02:34:33;;;;;;;;;;;;;;;;;;4948930;28;20134;-67
2023/10/29 02:36:59;;;;;;;;;;;;;;;;;;4946054;28;20194;-68
2023/10/29 02:39:25;;;;;;;;;;;;;;;;;;4950610;28;19936;-68
2023/10/29 02:41:51;;;;;;;;;;;;;;;;;;4945228;28;19968;-67
2023/10/29 02:44:17;;;;;;;;;;;;;;;;;;4950059;28;20304;-68
2023/10/29 02:46:43;;;;;;;;;;;;;;;;;;4944585;28;20295;-68
2023/10/29 02:49:09;;;;;;;;;;;;;;;;;;4949168;28;20516;-67
2023/10/29 02:51:35;;;;;;;;;;;;;;;;;;4941475;28;19971;-68
2023/10/29 02:54:01;;;;;;;;;;;;;;;;;;4927526;28;20454;-67
2023/10/29 02:56:27;;;;;;;;;;;;;;;;;;4927407;28;19924;-68
2023/10/29 02:58:53;;;;;;;;;;;;;;;;;;4943118;28;19914;-68
2023/10/29 03:01:19;;;;;;;;;;;;;;;;;;4948849;28;20336;-67
2023/10/29 03:03:45;;;;;;;;;;;;;;;;;;4941733;28;19997;-68
2023/10/29 03:06:11;;;;;;;;;;;;;;;;;;4949382;28;19965;-67
2023/10/29 03:08:37;;;;;;;;;;;;;;;;;;4944803;28;19913;-67
2023/10/29 03:11:03;;;;;;;;;;;;;;;;;;4930517;28;19915;-68
2023/10/29 03:13:29;;;;;;;;;;;;;;;;;;4944884;28;19922;-67
2023/10/29 03:15:56;;;;;;;;;;;;;;;;;;4947262;28;19914;-67
2023/10/29 03:18:22;;;;;;;;;;;;;;;;;;4947184;28;21039;-67
2023/10/29 03:20:48;;;;;;;;;;;;;;;;;;4944538;28;19913;-68
2023/10/29 03:23:14;;;;;;;;;;;;;;;;;;4932748;28;20223;-67
2023/10/29 03:25:40;;;;;;;;;;;;;;;;;;4943421;28;19913;-67
2023/10/29 03:28:06;;;;;;;;;;;;;;;;;;4951876;28;19921;-67
2023/10/29 03:30:32;;;;;;;;;;;;;;;;;;4944272;28;19922;-67
2023/10/29 03:32:58;;;;;;;;;;;;;;;;;;4928652;28;20344;-68
2023/10/29 03:35:24;;;;;;;;;;;;;;;;;;4928016;28;19915;-68
2023/10/29 03:37:50;;;;;;;;;;;;;;;;;;4942086;28;19976;-68
2023/10/29 03:40:16;;;;;;;;;;;;;;;;;;4940344;28;19910;-68
2023/10/29 03:42:42;;;;;;;;;;;;;;;;;;4943722;28;19944;-68
2023/10/29 03:45:07;;;;;;;;;;;;;;;;;;4928884;28;20639;-68
2023/10/29 03:47:33;;;;;;;;;;;;;;;;;;4941705;28;20376;-68
2023/10/29 03:49:59;;;;;;;;;;;;;;;;;;4948327;28;19973;-68
2023/10/29 03:52:25;;;;;;;;;;;;;;;;;;4941795;28;20143;-68
2023/10/29 03:54:51;;;;;;;;;;;;;;;;;;4943263;28;19918;-67
2023/10/29 03:57:18;;;;;;;;;;;;;;;;;;4948447;28;19921;-68
2023/10/29 03:59:43;;;;;;;;;;;;;;;;;;4931321;28;20194;-68
2023/10/29 04:02:09;;;;;;;;;;;;;;;;;;4929137;28;19949;-69
2023/10/29 04:04:35;;;;;;;;;;;;;;;;;;4924247;28;19914;-69
2023/10/29 04:07:02;;;;;;;;;;;;;;;;;;4941765;28;19921;-69
2023/10/29 04:09:27;;;;;;;;;;;;;;;;;;4947204;28;19947;-67
2023/10/29 04:11:53;;;;;;;;;;;;;;;;;;4943582;28;20972;-69
2023/10/29 04:14:20;;;;;;;;;;;;;;;;;;4947957;28;20570;-68
2023/10/29 04:16:46;;;;;;;;;;;;;;;;;;4944584;28;20306;-68
2023/10/29 04:19:12;;;;;;;;;;;;;;;;;;4948037;28;19924;-68
2023/10/29 04:21:37;;;;;;;;;;;;;;;;;;4940966;28;20514;-68
2023/10/29 04:24:03;;;;;;;;;;;;;;;;;;4944694;28;20064;-69
2023/10/29 04:26:30;;;;;;;;;;;;;;;;;;4948778;28;19913;-68
2023/10/29 04:28:56;;;;;;;;;;;;;;;;;;4943980;28;20265;-68
2023/10/29 04:31:22;;;;;;;;;;;;;;;;;;4947628;28;20449;-68
2023/10/29 04:33:48;;;;;;;;;;;;;;;;;;4941204;28;19918;-68
2023/10/29 04:36:15;;;;;;;;;;;;;;;;;;4943278;28;20308;-68
2023/10/29 04:38:41;;;;;;;;;;;;;;;;;;4925041;28;19925;-69
2023/10/29 04:41:07;;;;;;;;;;;;;;;;;;4942547;28;20295;-68
2023/10/29 04:43:33;;;;;;;;;;;;;;;;;;4947530;28;19961;-68
2023/10/29 04:46:00;;;;;;;;;;;;;;;;;;4946672;28;19947;-68
2023/10/29 04:48:26;;;;;;;;;;;;;;;;;;4948239;28;20237;-69
2023/10/29 04:50:52;;;;;;;;;;;;;;;;;;4944435;28;20351;-67
2023/10/29 04:53:18;;;;;;;;;;;;;;;;;;4946840;28;20234;-67
2023/10/29 04:55:44;;;;;;;;;;;;;;;;;;4930244;28;19936;-68
2023/10/29 04:58:10;;;;;;;;;;;;;;;;;;4941196;28;19964;-68
2023/10/29 05:00:36;;;;;;;;;;;;;;;;;;4944748;28;20120;-68
2023/10/29 05:03:02;;;;;;;;;;;;;;;;;;4942103;28;19925;-68
2023/10/29 05:05:30;;;;;;;;;;;;;;;;;;4945279;28;20162;-69
2023/10/29 05:07:56;;;;;;;;;;;;;;;;;;4926643;28;20285;-68
2023/10/29 05:10:25;;;;;;;;;;;;;;;;;;4946614;28;19921;-68
2023/10/29 05:12:51;;;;;;;;;;;;;;;;;;4939798;28;20176;-68
2023/10/29 05:15:17;;;;;;;;;;;;;;;;;;4943768;28;20065;-68
2023/10/29 05:17:43;;;;;;;;;;;;;;;;;;4943343;28;19972;-68
2023/10/29 05:20:10;;;;;;;;;;;;;;;;;;4946405;28;20016;-67
2023/10/29 05:22:36;;;;;;;;;;;;;;;;;;4942388;28;19956;-68
2023/10/29 05:25:02;;;;;;;;;;;;;;;;;;4946015;28;20351;-68
2023/10/29 05:27:28;;;;;;;;;;;;;;;;;;4930848;28;19925;-67
2023/10/29 05:29:54;;;;;;;;;;;;;;;;;;4940582;28;20271;-67
2023/10/29 05:32:20;;;;;;;;;;;;;;;;;;4938659;28;20749;-68
2023/10/29 05:34:46;;;;;;;;;;;;;;;;;;4927145;28;19964;-67
2023/10/29 05:37:12;;;;;;;;;;;;;;;;;;4942540;28;20009;-68
2023/10/29 05:39:38;;;;;;;;;;;;;;;;;;4926155;28;20305;-68
2023/10/29 05:42:04;;;;;;;;;;;;;;;;;;4928497;28;19968;-68
2023/10/29 05:44:30;;;;;;;;;;;;;;;;;;4948765;28;20494;-68
2023/10/29 05:46:56;;;;;;;;;;;;;;;;;;4941774;28;19953;-68
2023/10/29 05:49:22;;;;;;;;;;;;;;;;;;4932864;28;20571;-69
2023/10/29 05:51:49;;;;;;;;;;;;;;;;;;4930227;28;20066;-69
2023/10/29 05:54:15;;;;;;;;;;;;;;;;;;4946402;28;20348;-67
2023/10/29 05:56:41;;;;;;;;;;;;;;;;;;4943304;28;19929;-69
2023/10/29 05:59:07;;;;;;;;;;;;;;;;;;4942603;28;19914;-69
2023/10/29 06:01:33;;;;;;;;;;;;;;;;;;4945542;28;19924;-69
2023/10/29 06:03:59;;;;;;;;;;;;;;;;;;4943202;28;20498;-67
2023/10/29 06:06:25;;;;;;;;;;;;;;;;;;4941084;28;20812;-69
2023/10/29 06:08:51;;;;;;;;;;;;;;;;;;4945647;28;20485;-67
2023/10/29 06:11:17;;;;;;;;;;;;;;;;;;4927762;28;20394;-68
2023/10/29 06:13:44;;;;;;;;;;;;;;;;;;4944004;28;19954;-68
2023/10/29 06:16:10;;;;;;;;;;;;;;;;;;4944513;28;19914;-68
2023/10/29 06:18:36;;;;;;;;;;;;;;;;;;4923618;28;20486;-70
2023/10/29 06:21:02;;;;;;;;;;;;;;;;;;4944616;28;20209;-69
2023/10/29 06:23:28;;;;;;;;;;;;;;;;;;4945337;28;20191;-69
2023/10/29 06:25:54;;;;;;;;;;;;;;;;;;4941367;28;20211;-68
2023/10/29 06:28:20;;;;;;;;;;;;;;;;;;4942339;28;20032;-69
2023/10/29 06:30:45;;;;;;;;;;;;;;;;;;4928627;28;19922;-68
2023/10/29 06:33:11;;;;;;;;;;;;;;;;;;4930266;28;19922;-68
2023/10/29 06:35:40;;;;;;;;;;;;;;;;;;4940475;28;19914;-69
2023/10/29 06:38:06;;;;;;;;;;;;;;;;;;4946684;28;19914;-69
2023/10/29 06:40:32;;;;;;;;;;;;;;;;;;4932772;28;19921;-69
2023/10/29 06:42:58;;;;;;;;;;;;;;;;;;4942804;28;19914;-68
2023/10/29 06:45:24;;;;;;;;;;;;;;;;;;4947360;28;20471;-68
2023/10/29 06:47:50;;;;;;;;;;;;;;;;;;4928671;28;20130;-68
2023/10/29 06:50:16;;;;;;;;;;;;;;;;;;4945253;28;20020;-68
2023/10/29 06:52:42;;;;;;;;;;;;;;;;;;4943007;28;20323;-69
2023/10/29 06:55:09;;;;;;;;;;;;;;;;;;4944555;28;20000;-69
2023/10/29 06:57:34;;;;;;;;;;;;;;;;;;4943328;28;19914;-69
2023/10/29 07:00:00;;;;;;;;;;;;;;;;;;4947863;28;20314;-69
2023/10/29 07:02:27;;;;;;;;;;;;;;;;;;4941700;28;19919;-69
2023/10/29 07:04:53;;;;;;;;;;;;;;;;;;4925148;28;19961;-69
2023/10/29 07:07:19;;;;;;;;;;;;;;;;;;4946038;28;20024;-69
2023/10/29 07:09:45;;;;;;;;;;;;;;;;;;4938424;28;19961;-67
2023/10/29 07:12:11;;;;;;;;;;;;;;;;;;4937928;28;19914;-68
2023/10/29 07:14:37;;;;;;;;;;;;;;;;;;4925774;28;19921;-69
2023/10/29 07:17:03;;;;;;;;;;;;;;;;;;4947674;28;19936;-69
2023/10/29 07:19:29;;;;;;;;;;;;;;;;;;4924822;28;19914;-69
2023/10/29 07:21:55;;;;;;;;;;;;;;;;;;4940869;28;20230;-69
2023/10/29 07:24:21;;;;;;;;;;;;;;;;;;4927374;28;20331;-69
2023/10/29 07:26:47;;;;;;;;;;;;;;;;;;4942751;28;19918;-69
2023/10/29 07:29:13;;;;;;;;;;;;;;;;;;4945457;28;19921;-69
2023/10/29 07:31:39;;;;;;;;;;;;;;;;;;4943149;28;20031;-68
2023/10/29 07:34:05;;;;;;;;;;;;;;;;;;4944040;28;20363;-68
2023/10/29 07:36:31;;;;;;;;;;;;;;;;;;4943448;28;20143;-68
2023/10/29 07:38:57;;;;;;;;;;;;;;;;;;4938999;28;20407;-68
2023/10/29 07:41:23;;;;;;;;;;;;;;;;;;4927328;28;20197;-69
2023/10/29 07:43:49;;;;;;;;;;;;;;;;;;4927978;28;19914;-69
2023/10/29 07:46:15;;;;;;;;;;;;;;;;;;4941468;28;19941;-69
2023/10/29 07:48:41;;;;;;;;;;;;;;;;;;4939395;28;19921;-69
2023/10/29 07:51:08;;;;;;;;;;;;;;;;;;4928167;28;20251;-69
2023/10/29 07:53:33;;;;;;;;;;;;;;;;;;4940871;28;19925;-68
2023/10/29 07:55:59;;;;;;;;;;;;;;;;;;4929603;28;20036;-68
2023/10/29 07:58:25;;;;;;;;;;;;;;;;;;4943214;28;19944;-69
2023/10/29 08:00:51;;;;;;;;;;;;;;;;;;4939031;28;19927;-69
2023/10/29 08:03:17;;;;;;;;;;;;;;;;;;4942307;28;20311;-69
2023/10/29 08:05:43;;;;;;;;;;;;;;;;;;4937568;28;20384;-69
2023/10/29 08:08:09;;;;;;;;;;;;;;;;;;4938124;28;19918;-69
2023/10/29 08:10:37;;;;;;;;;;;;;;;;;;4934516;28;19921;-68
2023/10/29 08:13:03;;;;;;;;;;;;;;;;;;4938978;28;20194;-68
2023/10/29 08:15:29;;;;;;;;;;;;;;;;;;4936334;28;20309;-68
2023/10/29 08:17:55;;;;;;;;;;;;;;;;;;4933543;28;20263;-68
2023/10/29 08:20:21;;;;;;;;;;;;;;;;;;4922366;28;19953;-68
2023/10/29 08:22:47;;;;;;;;;;;;;;;;;;4932553;28;19921;-69
2023/10/29 08:25:13;;;;;;;;;;;;;;;;;;4923263;28;19965;-68
2023/10/29 08:27:39;;;;;;;;;;;;;;;;;;4918870;28;20439;-69
2023/10/29 08:30:08;;;;;;;;;;;;;;;;;;4936142;28;19921;-70
2023/10/29 08:32:34;;;;;;;;;;;;;;;;;;4935987;28;19922;-68
2023/10/29 08:35:00;;;;;;;;;;;;;;;;;;4936947;28;19921;-68
2023/10/29 08:37:26;;;;;;;;;;;;;;;;;;4937755;28;20270;-68
2023/10/29 08:39:52;;;;;;;;;;;;;;;;;;4931869;28;19969;-69
2023/10/29 08:42:18;;;;;;;;;;;;;;;;;;4938761;28;20175;-69
2023/10/29 08:44:43;;;;;;;;;;;;;;;;;;4920827;28;20337;-70
2023/10/29 08:47:09;;;;;;;;;;;;;;;;;;4940543;28;19918;-71
2023/10/29 08:49:35;;;;;;;;;;;;;;;;;;4932527;28;19909;-70
2023/10/29 08:52:02;;;;;;;;;;;;;;;;;;4938936;28;19918;-70
2023/10/29 08:54:28;;;;;;;;;;;;;;;;;;4917989;28;20409;-70
2023/10/29 08:56:54;;;;;;;;;;;;;;;;;;4934437;28;23148;-69
2023/10/29 08:59:20;;;;;;;;;;;;;;;;;;4939255;28;19922;-70
2023/10/29 09:01:46;;;;;;;;;;;;;;;;;;4935699;28;21218;-70
2023/10/29 09:04:12;;;;;;;;;;;;;;;;;;4936181;28;19949;-70
2023/10/29 09:06:38;;;;;;;;;;;;;;;;;;4921082;28;20412;-71
2023/10/29 09:09:04;;;;;;;;;;;;;;;;;;4939791;28;19917;-70
2023/10/29 09:11:30;;;;;;;;;;;;;;;;;;4936043;28;20612;-70
2023/10/29 09:13:57;;;;;;;;;;;;;;;;;;4933242;28;20008;-70
2023/10/29 09:16:23;;;;;;;;;;;;;;;;;;4938319;28;19966;-70
2023/10/29 09:18:49;;;;;;;;;;;;;;;;;;4938750;28;20317;-70
2023/10/29 09:21:15;;;;;;;;;;;;;;;;;;4938733;28;20237;-71
2023/10/29 09:23:41;;;;;;;;;;;;;;;;;;4936694;28;19913;-71
2023/10/29 09:26:07;;;;;;;;;;;;;;;;;;4939685;28;19975;-71
2023/10/29 09:28:33;;;;;;;;;;;;;;;;;;4944521;28;20005;-71
2023/10/29 09:30:59;;;;;;;;;;;;;;;;;;4939673;28;19918;-71
2023/10/29 09:33:25;;;;;;;;;;;;;;;;;;4942286;28;20261;-71
2023/10/29 09:35:51;;;;;;;;;;;;;;;;;;4938880;28;20387;-71
2023/10/29 09:38:20;;;;;;;;;;;;;;;;;;4928295;28;20232;-70
2023/10/29 09:40:46;;;;;;;;;;;;;;;;;;4935310;28;19914;-70
2023/10/29 09:43:12;;;;;;;;;;;;;;;;;;4944665;28;19914;-72
2023/10/29 09:45:37;;;;;;;;;;;;;;;;;;4937037;28;19918;-71
2023/10/29 09:48:03;;;;;;;;;;;;;;;;;;4923435;28;20317;-71
2023/10/29 09:50:29;;;;;;;;;;;;;;;;;;4941980;28;19918;-70
2023/10/29 09:52:55;;;;;;;;;;;;;;;;;;4938682;28;20525;-71
2023/10/29 09:55:21;;;;;;;;;;;;;;;;;;4941952;28;19940;-70
2023/10/29 09:57:47;;;;;;;;;;;;;;;;;;4938034;28;19914;-70
2023/10/29 10:00:16;;;;;;;;;;;;;;;;;;4920801;28;19932;-66
2023/10/29 10:02:42;;;;;;;;;;;;;;;;;;4937276;28;19918;-69
2023/10/29 10:05:09;;;;;;;;;;;;;;;;;;4921760;28;20269;-69
2023/10/29 10:07:35;;;;;;;;;;;;;;;;;;4920451;28;19914;-69
2023/10/29 10:10:02;;;;;;;;;;;;;;;;;;4940857;28;20609;-70
2023/10/29 10:12:28;;;;;;;;;;;;;;;;;;4939282;28;19922;-71
2023/10/29 10:14:54;;;;;;;;;;;;;;;;;;4920272;28;19921;-70
2023/10/29 10:17:20;;;;;;;;;;;;;;;;;;4942130;28;20004;-71
2023/10/29 10:19:46;;;;;;;;;;;;;;;;;;4936751;28;19924;-71
2023/10/29 10:22:12;;;;;;;;;;;;;;;;;;4942388;28;20151;-70
2023/10/29 10:24:38;;;;;;;;;;;;;;;;;;4938629;28;19949;-72
2023/10/29 10:27:04;;;;;;;;;;;;;;;;;;4940448;28;20419;-71
2023/10/29 10:29:33;;;;;;;;;;;;;;;;;;4940806;28;20573;-72
2023/10/29 10:32:00;;;;;;;;;;;;;;;;;;4936228;28;20262;-70
2023/10/29 10:34:26;;;;;;;;;;;;;;;;;;4941047;28;20251;-70
2023/10/29 10:36:53;;;;;;;;;;;;;;;;;;4922965;28;20345;-71
2023/10/29 10:39:19;;;;;;;;;;;;;;;;;;4923979;28;20392;-71
2023/10/29 10:41:45;;;;;;;;;;;;;;;;;;4936571;28;19914;-71
2023/10/29 10:44:11;;;;;;;;;;;;;;;;;;4922468;28;19914;-71
2023/10/29 10:46:38;;;;;;;;;;;;;;;;;;4936917;28;20482;-72
2023/10/29 10:49:04;;;;;;;;;;;;;;;;;;4946814;28;19991;-72
2023/10/29 10:51:30;;;;;;;;;;;;;;;;;;4924676;28;20321;-71
2023/10/29 10:53:56;;;;;;;;;;;;;;;;;;4922616;28;20743;-71
2023/10/29 10:56:22;;;;;;;;;;;;;;;;;;4926201;28;19921;-72
2023/10/29 10:58:48;;;;;;;;;;;;;;;;;;4939427;28;20484;-70
2023/10/29 11:01:14;;;;;;;;;;;;;;;;;;4923107;28;20278;-71
2023/10/29 11:03:40;;;;;;;;;;;;;;;;;;4936968;28;19920;-71
2023/10/29 11:06:06;;;;;;;;;;;;;;;;;;4925067;28;20212;-70
2023/10/29 11:08:32;;;;;;;;;;;;;;;;;;4921110;28;19918;-71
2023/10/29 11:10:58;;;;;;;;;;;;;;;;;;4941430;28;19913;-70
2023/10/29 11:13:26;;;;;;;;;;;;;;;;;;4939260;28;20171;-67
2023/10/29 11:15:52;;;;;;;;;;;;;;;;;;4921871;28;20435;-67
2023/10/29 11:18:18;;;;;;;;;;;;;;;;;;4925259;28;20180;-67
2023/10/29 11:20:49;;;;;;;;;;;;;;;;;;4924057;28;20024;-67
2023/10/29 11:23:15;;;;;;;;;;;;;;;;;;4937173;28;19995;-67
2023/10/29 11:25:41;;;;;;;;;;;;;;;;;;4934877;28;20582;-68
2023/10/29 11:28:07;;;;;;;;;;;;;;;;;;4919127;28;20786;-67
2023/10/29 11:30:33;;;;;;;;;;;;;;;;;;4920199;28;19914;-67
2023/10/29 11:32:59;;;;;;;;;;;;;;;;;;4927739;28;19922;-67
2023/10/29 11:35:25;;;;;;;;;;;;;;;;;;4929574;28;19964;-67
2023/10/29 11:37:54;;;;;;;;;;;;;;;;;;4942969;28;20037;-67
2023/10/29 11:40:20;;;;;;;;;;;;;;;;;;4944367;28;19914;-67
2023/10/29 11:42:46;;;;;;;;;;;;;;;;;;4944396;28;19922;-68
2023/10/29 11:45:12;;;;;;;;;;;;;;;;;;4932152;28;20539;-67
2023/10/29 11:47:38;;;;;;;;;;;;;;;;;;4938735;28;20025;-67
2023/10/29 11:50:04;;;;;;;;;;;;;;;;;;4925197;28;19914;-67
2023/10/29 11:52:30;;;;;;;;;;;;;;;;;;4942719;28;19918;-67
2023/10/29 11:54:56;;;;;;;;;;;;;;;;;;4925181;28;19918;-67
2023/10/29 11:57:22;;;;;;;;;;;;;;;;;;4940902;28;20471;-67
2023/10/29 11:59:48;;;;;;;;;;;;;;;;;;4940262;28;19922;-67
2023/10/29 12:02:14;;;;;;;;;;;;;;;;;;4945653;28;19926;-67
2023/10/29 12:04:40;;;;;;;;;;;;;;;;;;4899386;28;20188;-67
2023/10/29 12:07:06;;;;;;;;;;;;;;;;;;4905750;28;19914;-66
2023/10/29 12:09:34;;;;;;;;;;;;;;;;;;4908578;28;19921;-67
2023/10/29 12:12:00;;;;;;;;;;;;;;;;;;4906153;28;19914;-67
2023/10/29 12:14:26;;;;;;;;;;;;;;;;;;4905864;28;19918;-66
2023/10/29 12:16:52;;;;;;;;;;;;;;;;;;4906743;28;20000;-67
2023/10/29 12:19:18;;;;;;;;;;;;;;;;;;4900849;28;19914;-67
2023/10/29 12:21:44;;;;;;;;;;;;;;;;;;4891759;28;19930;-67
2023/10/29 12:24:10;;;;;;;;;;;;;;;;;;4906945;28;19943;-67
2023/10/29 12:26:36;;;;;;;;;;;;;;;;;;4904447;28;19918;-66
2023/10/29 12:29:02;;;;;;;;;;;;;;;;;;4905698;28;20045;-67
2023/10/29 12:31:29;;;;;;;;;;;;;;;;;;4902898;28;19922;-67
2023/10/29 12:33:55;;;;;;;;;;;;;;;;;;4898988;28;19921;-67
2023/10/29 12:36:23;;;;;;;;;;;;;;;;;;4901922;28;19921;-66
2023/10/29 12:38:49;;;;;;;;;;;;;;;;;;4899468;28;20394;-67
2023/10/29 12:41:15;;;;;;;;;;;;;;;;;;4915920;28;20216;-66
2023/10/29 12:43:41;;;;;;;;;;;;;;;;;;4912846;28;20462;-67
2023/10/29 12:46:06;;;;;;;;;;;;;;;;;;4929394;28;19918;-67
2023/10/29 12:48:33;;;;;;;;;;;;;;;;;;4927413;28;20041;-67
2023/10/29 12:51:00;;;;;;;;;;;;;;;;;;4944322;28;20016;-67
2023/10/29 12:53:26;;;;;;;;;;;;;;;;;;4950112;28;19918;-67
2023/10/29 12:55:52;;;;;;;;;;;;;;;;;;4944569;28;20379;-67
2023/10/29 12:58:17;;;;;;;;;;;;;;;;;;4933103;28;19913;-67
2023/10/29 13:00:44;;;;;;;;;;;;;;;;;;4944892;28;19929;-67
2023/10/29 13:03:09;;;;;;;;;;;;;;;;;;4930367;28;20028;-67
2023/10/29 13:05:35;;;;;;;;;;;;;;;;;;4944170;28;19936;-67
2023/10/29 13:08:04;;;;;;;;;;;;;;;;;;4949722;28;19915;-67
2023/10/29 13:10:30;;;;;;;;;;;;;;;;;;4931446;28;20408;-67
2023/10/29 13:12:56;;;;;;;;;;;;;;;;;;4944669;28;19926;-67
2023/10/29 13:15:22;;;;;;;;;;;;;;;;;;4945009;28;20044;-67
2023/10/29 13:17:48;;;;;;;;;;;;;;;;;;4920912;28;20004;-67
2023/10/29 13:20:14;;;;;;;;;;;;;;;;;;4906992;28;19918;-67
2023/10/29 13:22:41;;;;;;;;;;;;;;;;;;4903971;28;19990;-66
2023/10/29 13:25:07;;;;;;;;;;;;;;;;;;4906068;28;19911;-67
2023/10/29 13:27:33;;;;;;;;;;;;;;;;;;4912369;28;20020;-67
2023/10/29 13:29:59;;;;;;;;;;;;;;;;;;4901512;28;20005;-68
2023/10/29 13:32:25;;;;;;;;;;;;;;;;;;4908579;28;19957;-67
2023/10/29 13:34:56;;;;;;;;;;;;;;;;;;4898803;28;20005;-66
2023/10/29 13:37:22;;;;;;;;;;;;;;;;;;4907431;28;19922;-66
2023/10/29 13:39:47;;;;;;;;;;;;;;;;;;4906215;28;20146;-65
2023/10/29 13:42:13;;;;;;;;;;;;;;;;;;4907118;28;19914;-67
2023/10/29 13:44:39;;;;;;;;;;;;;;;;;;4910960;28;20200;-67
2023/10/29 13:47:05;;;;;;;;;;;;;;;;;;4911158;28;20020;-68
2023/10/29 13:49:31;;;;;;;;;;;;;;;;;;4924826;28;20311;-66
2023/10/29 13:51:57;;;;;;;;;;;;;;;;;;4920724;28;20211;-67
2023/10/29 13:54:23;;;;;;;;;;;;;;;;;;4915558;28;20008;-66
2023/10/29 13:56:49;;;;;;;;;;;;;;;;;;4931645;28;19921;-67
2023/10/29 13:59:15;;;;;;;;;;;;;;;;;;4930495;28;19918;-66
2023/10/29 14:01:42;;;;;;;;;;;;;;;;;;4943472;28;20285;-66
2023/10/29 14:04:08;;;;;;;;;;;;;;;;;;4945650;28;20591;-66
2023/10/29 14:06:34;;;;;;;;;;;;;;;;;;4927202;28;19914;-66
2023/10/29 14:09:00;;;;;;;;;;;;;;;;;;4949310;28;19910;-65
2023/10/29 14:11:26;;;;;;;;;;;;;;;;;;4948271;28;19914;-66
2023/10/29 14:13:55;;;;;;;;;;;;;;;;;;4945885;28;19918;-67
2023/10/29 14:16:21;;;;;;;;;;;;;;;;;;4946914;28;19945;-72
2023/10/29 14:18:47;;;;;;;;;;;;;;;;;;4922232;28;20343;-68
2023/10/29 14:21:13;;;;;;;;;;;;;;;;;;4922546;28;19933;-67
2023/10/29 14:23:40;;;;;;;;;;;;;;;;;;4920149;28;20374;-66
2023/10/29 14:26:05;;;;;;;;;;;;;;;;;;4921442;28;20062;-66
2023/10/29 14:28:31;;;;;;;;;;;;;;;;;;4924566;28;20408;-66
2023/10/29 14:30:57;;;;;;;;;;;;;;;;;;4919921;28;20424;-66
2023/10/29 14:33:23;;;;;;;;;;;;;;;;;;4922044;28;20448;-67
2023/10/29 14:35:49;;;;;;;;;;;;;;;;;;4921472;28;19920;-66
2023/10/29 14:38:15;;;;;;;;;;;;;;;;;;4908718;28;19918;-67
2023/10/29 14:40:41;;;;;;;;;;;;;;;;;;4921496;28;20269;-67
2023/10/29 14:43:07;;;;;;;;;;;;;;;;;;4924599;28;19935;-67
2023/10/29 14:45:33;;;;;;;;;;;;;;;;;;4924477;28;20230;-66
2023/10/29 14:48:00;;;;;;;;;;;;;;;;;;4923803;28;20204;-67
2023/10/29 14:50:26;;;;;;;;;;;;;;;;;;4910804;28;19954;-67
2023/10/29 14:52:52;;;;;;;;;;;;;;;;;;4918368;28;20802;-66
2023/10/29 14:55:18;;;;;;;;;;;;;;;;;;4935123;28;20219;-66
2023/10/29 14:57:43;;;;;;;;;;;;;;;;;;4945614;28;20565;-66
2023/10/29 15:00:10;;;;;;;;;;;;;;;;;;4947914;28;19953;-66
2023/10/29 15:02:36;;;;;;;;;;;;;;;;;;4942554;28;19918;-66
2023/10/29 15:05:04;;;;;;;;;;;;;;;;;;4945874;28;20707;-66
2023/10/29 15:07:30;;;;;;;;;;;;;;;;;;4927444;28;20654;-66
2023/10/29 15:09:56;;;;;;;;;;;;;;;;;;4941741;28;19913;-66
2023/10/29 15:12:22;;;;;;;;;;;;;;;;;;4931285;28;20541;-67
2023/10/29 15:14:48;;;;;;;;;;;;;;;;;;4944098;28;19929;-66
2023/10/29 15:17:16;;;;;;;;;;;;;;;;;;4945856;28;19969;-66
2023/10/29 15:19:42;;;;;;;;;;;;;;;;;;4926216;28;19914;-66
2023/10/29 15:22:08;;;;;;;;;;;;;;;;;;4947913;28;20269;-67
2023/10/29 15:24:34;;;;;;;;;;;;;;;;;;4941278;28;20020;-67
2023/10/29 15:27:00;;;;;;;;;;;;;;;;;;4948576;28;20630;-66
2023/10/29 15:29:26;;;;;;;;;;;;;;;;;;4932817;28;20021;-67
2023/10/29 15:31:53;;;;;;;;;;;;;;;;;;4941148;28;19932;-66
2023/10/29 15:34:19;;;;;;;;;;;;;;;;;;4947786;28;19918;-66
2023/10/29 15:36:45;;;;;;;;;;;;;;;;;;4943950;28;19925;-66
2023/10/29 15:39:11;;;;;;;;;;;;;;;;;;4947147;28;20513;-66
2023/10/29 15:41:39;;;;;;;;;;;;;;;;;;4945259;28;19914;-66
2023/10/29 15:44:05;;;;;;;;;;;;;;;;;;4931458;28;19918;-66
2023/10/29 15:46:31;;;;;;;;;;;;;;;;;;4947114;28;19977;-66
2023/10/29 15:48:57;;;;;;;;;;;;;;;;;;4943278;28;20289;-66
2023/10/29 15:51:25;;;;;;;;;;;;;;;;;;4946058;28;20063;-66
2023/10/29 15:53:53;;;;;;;;;;;;;;;;;;4944551;28;19926;-66
2023/10/29 15:56:19;;;;;;;;;;;;;;;;;;4946951;28;19967;-67
2023/10/29 15:58:45;;;;;;;;;;;;;;;;;;4944006;28;19943;-66
2023/10/29 16:01:11;;;;;;;;;;;;;;;;;;4948081;28;19929;-65
2023/10/29 16:03:37;;;;;;;;;;;;;;;;;;4939360;28;20331;-66
2023/10/29 16:06:04;;;;;;;;;;;;;;;;;;4943748;28;19914;-66
2023/10/29 16:08:30;;;;;;;;;;;;;;;;;;4945078;28;19914;-66
2023/10/29 16:10:56;;;;;;;;;;;;;;;;;;4944390;28;19914;-66
2023/10/29 16:13:22;;;;;;;;;;;;;;;;;;4941639;28;19922;-66
2023/10/29 16:15:48;;;;;;;;;;;;;;;;;;4938803;28;20252;-66
2023/10/29 16:18:14;;;;;;;;;;;;;;;;;;4937552;28;20347;-65
2023/10/29 16:20:41;;;;;;;;;;;;;;;;;;4938047;28;20276;-68
2023/10/29 16:23:07;;;;;;;;;;;;;;;;;;4927186;28;20419;-68
2023/10/29 16:25:33;;;;;;;;;;;;;;;;;;4942327;28;20260;-66
2023/10/29 16:27:59;;;;;;;;;;;;;;;;;;4939330;28;20654;-67
2023/10/29 16:30:25;;;;;;;;;;;;;;;;;;4939866;28;20312;-72
2023/10/29 16:32:51;;;;;;;;;;;;;;;;;;4938025;28;19926;-72
2023/10/29 16:35:17;;;;;;;;;;;;;;;;;;4942858;28;19925;-72
2023/10/29 16:37:43;;;;;;;;;;;;;;;;;;4938432;28;19913;-72